QTR133 OMDB-OBBI
Flight info
| Callsign | QTR133 |
|---|---|
| Flight time | 0h 49m |
| Altitude | 26000 |
| Route | NABIX P699 ORMID Y856 ALKAN/N0334F180 Y856 SOLOB/N0326F160 Y856 ORDIG |
| Aircraft | A20N/M-SDE2E3FGHIRWXY/LB1 |
Departure
| Time | 2026-04-20 15:57 |
|---|---|
| Airport | Dubai International Airport (OMDB) |
Arrival
| Time | 2026-04-20 16:47 |
|---|---|
| Airport | Bahrain International Airport (OBBI) |
| Time | Latitude | Longitude | Altitude | Speed | Heading |
|---|---|---|---|---|---|
| 2026-04-20 15:30 | 25.24337 | 55.37354 | 36 ft | 0 kts | 211° |
| 2026-04-20 15:46 | 25.24346 | 55.37361 | 30 ft | 2 kts | 210° |
| 2026-04-20 15:46 | 25.24361 | 55.37370 | 39 ft | 2 kts | 211° |
| 2026-04-20 15:47 | 25.24375 | 55.37380 | 35 ft | 2 kts | 211° |
| 2026-04-20 15:47 | 25.24389 | 55.37389 | 36 ft | 2 kts | 211° |
| 2026-04-20 15:47 | 25.24403 | 55.37399 | 36 ft | 2 kts | 211° |
| 2026-04-20 15:47 | 25.24417 | 55.37408 | 36 ft | 2 kts | 211° |
| 2026-04-20 15:48 | 25.24432 | 55.37417 | 34 ft | 2 kts | 176° |
| 2026-04-20 15:48 | 25.24446 | 55.37408 | 32 ft | 2 kts | 123° |
| 2026-04-20 15:48 | 25.24452 | 55.37398 | 35 ft | 1 kts | 121° |
| 2026-04-20 15:48 | 25.24452 | 55.37397 | 35 ft | 0 kts | 121° |
| 2026-04-20 15:52 | 25.24442 | 55.37416 | 36 ft | 6 kts | 121° |
| 2026-04-20 15:52 | 25.24412 | 55.37472 | 36 ft | 9 kts | 120° |
| 2026-04-20 15:53 | 25.24335 | 55.37612 | 39 ft | 11 kts | 122° |
| 2026-04-20 15:53 | 25.24308 | 55.37660 | 41 ft | 0 kts | 122° |
| 2026-04-20 15:53 | 25.24300 | 55.37672 | 41 ft | 4 kts | 122° |
| 2026-04-20 15:53 | 25.24278 | 55.37711 | 41 ft | 8 kts | 122° |
| 2026-04-20 15:54 | 25.24280 | 55.37773 | 41 ft | 10 kts | 53° |
| 2026-04-20 15:54 | 25.24336 | 55.37820 | 43 ft | 10 kts | 32° |
| 2026-04-20 15:54 | 25.24405 | 55.37870 | 43 ft | 14 kts | 34° |
| 2026-04-20 15:54 | 25.24491 | 55.37937 | 43 ft | 17 kts | 32° |
| 2026-04-20 15:55 | 25.24581 | 55.38002 | 43 ft | 16 kts | 34° |
| 2026-04-20 15:55 | 25.24685 | 55.38077 | 43 ft | 19 kts | 32° |
| 2026-04-20 15:55 | 25.24766 | 55.38098 | 43 ft | 5 kts | 331° |
| 2026-04-20 15:55 | 25.24788 | 55.38068 | 42 ft | 0 kts | 303° |
| 2026-04-20 15:56 | 25.24791 | 55.38064 | 42 ft | 4 kts | 303° |
| 2026-04-20 15:56 | 25.24881 | 55.37903 | 39 ft | 56 kts | 300° |
| 2026-04-20 15:56 | 25.25210 | 55.37310 | 26 ft | 122 kts | 301° |
| 2026-04-20 15:57 | 25.25742 | 55.36353 | 31 ft | 168 kts | 302° |
| 2026-04-20 15:57 | 25.26374 | 55.35242 | 575 ft | 167 kts | 302° |
| 2026-04-20 15:57 | 25.26976 | 55.34165 | 1282 ft | 163 kts | 301° |
| 2026-04-20 15:57 | 25.27568 | 55.33079 | 1846 ft | 170 kts | 302° |
| 2026-04-20 15:58 | 25.28218 | 55.31892 | 2239 ft | 190 kts | 302° |
| 2026-04-20 15:58 | 25.28930 | 55.30569 | 2663 ft | 211 kts | 297° |
| 2026-04-20 15:58 | 25.29210 | 55.28894 | 3117 ft | 236 kts | 264° |
| 2026-04-20 15:58 | 25.28649 | 55.27157 | 3937 ft | 243 kts | 245° |
| 2026-04-20 15:59 | 25.27896 | 55.25473 | 4894 ft | 245 kts | 245° |
| 2026-04-20 15:59 | 25.27142 | 55.23782 | 5822 ft | 247 kts | 246° |
| 2026-04-20 15:59 | 25.26390 | 55.22059 | 6748 ft | 249 kts | 246° |
| 2026-04-20 15:59 | 25.25645 | 55.20322 | 7644 ft | 251 kts | 246° |
| 2026-04-20 16:00 | 25.24896 | 55.18565 | 8553 ft | 254 kts | 245° |
| 2026-04-20 16:00 | 25.24185 | 55.16772 | 9455 ft | 256 kts | 253° |
| 2026-04-20 16:00 | 25.23781 | 55.14863 | 10314 ft | 257 kts | 263° |
| 2026-04-20 16:00 | 25.23525 | 55.12848 | 10864 ft | 275 kts | 264° |
| 2026-04-20 16:01 | 25.23258 | 55.10668 | 11240 ft | 298 kts | 264° |
| 2026-04-20 16:01 | 25.22957 | 55.08310 | 11572 ft | 322 kts | 264° |
| 2026-04-20 16:01 | 25.22620 | 55.05775 | 11908 ft | 343 kts | 263° |
| 2026-04-20 16:01 | 25.22260 | 55.03145 | 12650 ft | 348 kts | 263° |
| 2026-04-20 16:02 | 25.21898 | 55.00547 | 13499 ft | 351 kts | 263° |
| 2026-04-20 16:02 | 25.21518 | 54.97812 | 14290 ft | 355 kts | 263° |
| 2026-04-20 16:02 | 25.21151 | 54.95143 | 15029 ft | 358 kts | 264° |
| 2026-04-20 16:02 | 25.20921 | 54.92364 | 15773 ft | 361 kts | 267° |
| 2026-04-20 16:03 | 25.20731 | 54.89621 | 16498 ft | 364 kts | 267° |
| 2026-04-20 16:03 | 25.20535 | 54.86863 | 17202 ft | 368 kts | 266° |
| 2026-04-20 16:03 | 25.20329 | 54.83988 | 17927 ft | 372 kts | 266° |
| 2026-04-20 16:03 | 25.20116 | 54.81132 | 18586 ft | 374 kts | 265° |
| 2026-04-20 16:04 | 25.19903 | 54.78260 | 19261 ft | 376 kts | 266° |
| 2026-04-20 16:04 | 25.19833 | 54.75381 | 19924 ft | 377 kts | 272° |
| 2026-04-20 16:04 | 25.20011 | 54.72475 | 20563 ft | 380 kts | 274° |
| 2026-04-20 16:04 | 25.20191 | 54.69557 | 21210 ft | 382 kts | 274° |
| 2026-04-20 16:05 | 25.20369 | 54.66623 | 21839 ft | 385 kts | 274° |
| 2026-04-20 16:05 | 25.20543 | 54.63661 | 22471 ft | 387 kts | 274° |
| 2026-04-20 16:05 | 25.20716 | 54.60682 | 23098 ft | 390 kts | 274° |
| 2026-04-20 16:05 | 25.20882 | 54.57680 | 23602 ft | 393 kts | 273° |
| 2026-04-20 16:06 | 25.21068 | 54.54663 | 24106 ft | 395 kts | 276° |
| 2026-04-20 16:06 | 25.21503 | 54.51658 | 24623 ft | 398 kts | 282° |
| 2026-04-20 16:06 | 25.22227 | 54.48690 | 25125 ft | 401 kts | 285° |
| 2026-04-20 16:06 | 25.22990 | 54.45719 | 25600 ft | 404 kts | 285° |
| 2026-04-20 16:07 | 25.23749 | 54.42717 | 25796 ft | 406 kts | 285° |
| 2026-04-20 16:07 | 25.24493 | 54.39751 | 25846 ft | 406 kts | 284° |
| 2026-04-20 16:07 | 25.25251 | 54.36729 | 25849 ft | 413 kts | 284° |
| 2026-04-20 16:07 | 25.26031 | 54.33614 | 25849 ft | 428 kts | 284° |
| 2026-04-20 16:08 | 25.26838 | 54.30388 | 25850 ft | 442 kts | 284° |
| 2026-04-20 16:08 | 25.27667 | 54.27057 | 25851 ft | 454 kts | 284° |
| 2026-04-20 16:08 | 25.28517 | 54.23625 | 25851 ft | 462 kts | 284° |
| 2026-04-20 16:08 | 25.29367 | 54.20187 | 25847 ft | 461 kts | 284° |
| 2026-04-20 16:09 | 25.30216 | 54.16744 | 25848 ft | 461 kts | 284° |
| 2026-04-20 16:09 | 25.31061 | 54.13316 | 25850 ft | 461 kts | 284° |
| 2026-04-20 16:09 | 25.31848 | 54.09925 | 25855 ft | 461 kts | 283° |
| 2026-04-20 16:09 | 25.32573 | 54.06467 | 25855 ft | 461 kts | 282° |
| 2026-04-20 16:10 | 25.33061 | 54.04076 | 25854 ft | 461 kts | 282° |
| 2026-04-20 16:10 | 25.33771 | 54.00617 | 25850 ft | 461 kts | 282° |
| 2026-04-20 16:10 | 25.34489 | 53.97154 | 25851 ft | 461 kts | 282° |
| 2026-04-20 16:10 | 25.35213 | 53.93697 | 25850 ft | 461 kts | 282° |
| 2026-04-20 16:11 | 25.35939 | 53.90241 | 25853 ft | 460 kts | 282° |
| 2026-04-20 16:11 | 25.36664 | 53.86797 | 25850 ft | 460 kts | 282° |
| 2026-04-20 16:11 | 25.37387 | 53.83357 | 25855 ft | 460 kts | 282° |
| 2026-04-20 16:11 | 25.38104 | 53.79952 | 25852 ft | 459 kts | 282° |
| 2026-04-20 16:12 | 25.38826 | 53.76515 | 25854 ft | 459 kts | 282° |
| 2026-04-20 16:12 | 25.39548 | 53.73078 | 25851 ft | 458 kts | 282° |
| 2026-04-20 16:12 | 25.40269 | 53.69639 | 25856 ft | 459 kts | 282° |
| 2026-04-20 16:12 | 25.40988 | 53.66206 | 25855 ft | 458 kts | 282° |
| 2026-04-20 16:13 | 25.41705 | 53.62777 | 25854 ft | 458 kts | 282° |
| 2026-04-20 16:13 | 25.42422 | 53.59341 | 25850 ft | 458 kts | 282° |
| 2026-04-20 16:13 | 25.43138 | 53.55911 | 25856 ft | 458 kts | 282° |
| 2026-04-20 16:13 | 25.43852 | 53.52480 | 25851 ft | 458 kts | 282° |
| 2026-04-20 16:14 | 25.44565 | 53.49049 | 25855 ft | 458 kts | 282° |
| 2026-04-20 16:14 | 25.45278 | 53.45616 | 25852 ft | 457 kts | 282° |
| 2026-04-20 16:14 | 25.45991 | 53.42179 | 25855 ft | 457 kts | 282° |
| 2026-04-20 16:14 | 25.46701 | 53.38754 | 25850 ft | 458 kts | 282° |
| 2026-04-20 16:15 | 25.47413 | 53.35318 | 25854 ft | 458 kts | 282° |
| 2026-04-20 16:15 | 25.48125 | 53.31874 | 25852 ft | 458 kts | 282° |
| 2026-04-20 16:15 | 25.48834 | 53.28439 | 25852 ft | 458 kts | 282° |
| 2026-04-20 16:15 | 25.49541 | 53.25010 | 25851 ft | 458 kts | 282° |
| 2026-04-20 16:16 | 25.50248 | 53.21573 | 25855 ft | 458 kts | 282° |
| 2026-04-20 16:16 | 25.50954 | 53.18135 | 25856 ft | 457 kts | 282° |
| 2026-04-20 16:16 | 25.51657 | 53.14707 | 25853 ft | 458 kts | 282° |
| 2026-04-20 16:16 | 25.52360 | 53.11273 | 25851 ft | 457 kts | 282° |
| 2026-04-20 16:17 | 25.53053 | 53.07887 | 25851 ft | 444 kts | 282° |
| 2026-04-20 16:17 | 25.53730 | 53.04570 | 25851 ft | 443 kts | 282° |
| 2026-04-20 16:17 | 25.54411 | 53.01233 | 25849 ft | 444 kts | 282° |
| 2026-04-20 16:17 | 25.55090 | 52.97897 | 25848 ft | 444 kts | 282° |
| 2026-04-20 16:18 | 25.55797 | 52.94621 | 25855 ft | 444 kts | 285° |
| 2026-04-20 16:18 | 25.56786 | 52.91379 | 25852 ft | 445 kts | 290° |
| 2026-04-20 16:18 | 25.58076 | 52.88257 | 25847 ft | 446 kts | 296° |
| 2026-04-20 16:18 | 25.59642 | 52.85279 | 25855 ft | 448 kts | 300° |
| 2026-04-20 16:19 | 25.61280 | 52.82340 | 25844 ft | 448 kts | 300° |
| 2026-04-20 16:19 | 25.62904 | 52.79395 | 25844 ft | 448 kts | 296° |
| 2026-04-20 16:19 | 25.64477 | 52.76431 | 25686 ft | 443 kts | 298° |
| 2026-04-20 16:19 | 25.66077 | 52.73517 | 25099 ft | 442 kts | 300° |
| 2026-04-20 16:20 | 25.67711 | 52.70633 | 24396 ft | 440 kts | 300° |
| 2026-04-20 16:20 | 25.69329 | 52.67771 | 24025 ft | 436 kts | 300° |
| 2026-04-20 16:20 | 25.70932 | 52.64906 | 23888 ft | 439 kts | 300° |
| 2026-04-20 16:20 | 25.72535 | 52.62015 | 23856 ft | 440 kts | 300° |
| 2026-04-20 16:21 | 25.74134 | 52.59120 | 23843 ft | 440 kts | 300° |
| 2026-04-20 16:21 | 25.75733 | 52.56219 | 23849 ft | 440 kts | 300° |
| 2026-04-20 16:21 | 25.77330 | 52.53317 | 23851 ft | 440 kts | 300° |
| 2026-04-20 16:21 | 25.78924 | 52.50419 | 23848 ft | 440 kts | 300° |
| 2026-04-20 16:22 | 25.80518 | 52.47520 | 23846 ft | 441 kts | 300° |
| 2026-04-20 16:22 | 25.82113 | 52.44616 | 23842 ft | 441 kts | 300° |
| 2026-04-20 16:22 | 25.83664 | 52.41733 | 23840 ft | 441 kts | 298° |
| 2026-04-20 16:22 | 25.85244 | 52.38783 | 23842 ft | 433 kts | 299° |
| 2026-04-20 16:23 | 25.86786 | 52.35966 | 23841 ft | 431 kts | 295° |
| 2026-04-20 16:23 | 25.88276 | 52.33161 | 23842 ft | 412 kts | 300° |
| 2026-04-20 16:23 | 25.89763 | 52.30525 | 23848 ft | 394 kts | 301° |
| 2026-04-20 16:23 | 25.91228 | 52.27945 | 23845 ft | 400 kts | 300° |
| 2026-04-20 16:24 | 25.92701 | 52.25312 | 23834 ft | 402 kts | 300° |
| 2026-04-20 16:24 | 25.94168 | 52.22627 | 23836 ft | 400 kts | 293° |
| 2026-04-20 16:24 | 25.95454 | 52.19890 | 23838 ft | 398 kts | 298° |
| 2026-04-20 16:24 | 25.96862 | 52.17317 | 23842 ft | 380 kts | 301° |
| 2026-04-20 16:25 | 25.98247 | 52.14929 | 23835 ft | 366 kts | 301° |
| 2026-04-20 16:25 | 25.99630 | 52.12527 | 23837 ft | 373 kts | 300° |
| 2026-04-20 16:25 | 26.01009 | 52.10073 | 23841 ft | 373 kts | 300° |
| 2026-04-20 16:25 | 26.02363 | 52.07622 | 23836 ft | 372 kts | 299° |
| 2026-04-20 16:26 | 26.03708 | 52.05163 | 23840 ft | 372 kts | 299° |
| 2026-04-20 16:26 | 26.05045 | 52.02708 | 23842 ft | 372 kts | 299° |
| 2026-04-20 16:26 | 26.06384 | 52.00245 | 23843 ft | 371 kts | 299° |
| 2026-04-20 16:26 | 26.07722 | 51.97784 | 23829 ft | 371 kts | 290° |
| 2026-04-20 16:27 | 26.08990 | 51.95282 | 23843 ft | 373 kts | 298° |
| 2026-04-20 16:27 | 26.10331 | 51.92826 | 23762 ft | 369 kts | 300° |
| 2026-04-20 16:27 | 26.11683 | 51.90408 | 23430 ft | 367 kts | 299° |
| 2026-04-20 16:27 | 26.13024 | 51.87988 | 22912 ft | 365 kts | 299° |
| 2026-04-20 16:28 | 26.14345 | 51.85587 | 22344 ft | 362 kts | 299° |
| 2026-04-20 16:28 | 26.15633 | 51.83227 | 21822 ft | 360 kts | 299° |
| 2026-04-20 16:28 | 26.16928 | 51.80844 | 21290 ft | 357 kts | 299° |
| 2026-04-20 16:28 | 26.18202 | 51.78492 | 20779 ft | 354 kts | 299° |
| 2026-04-20 16:29 | 26.19469 | 51.76149 | 20272 ft | 352 kts | 299° |
| 2026-04-20 16:29 | 26.20655 | 51.73789 | 19759 ft | 347 kts | 297° |
| 2026-04-20 16:29 | 26.21851 | 51.71458 | 19240 ft | 344 kts | 290° |
| 2026-04-20 16:29 | 26.23011 | 51.69053 | 18718 ft | 341 kts | 290° |
| 2026-04-20 16:30 | 26.23932 | 51.66638 | 18219 ft | 338 kts | 294° |
| 2026-04-20 16:30 | 26.25166 | 51.64407 | 17663 ft | 338 kts | 303° |
| 2026-04-20 16:30 | 26.26542 | 51.62292 | 17169 ft | 336 kts | 303° |
| 2026-04-20 16:30 | 26.27876 | 51.60181 | 16525 ft | 331 kts | 302° |
| 2026-04-20 16:31 | 26.29137 | 51.58048 | 15985 ft | 329 kts | 300° |
| 2026-04-20 16:31 | 26.30310 | 51.55911 | 15518 ft | 324 kts | 293° |
| 2026-04-20 16:31 | 26.31384 | 51.53706 | 15021 ft | 322 kts | 292° |
| 2026-04-20 16:31 | 26.32494 | 51.51542 | 14551 ft | 321 kts | 299° |
| 2026-04-20 16:32 | 26.33678 | 51.49448 | 14110 ft | 318 kts | 300° |
| 2026-04-20 16:32 | 26.34805 | 51.47340 | 13634 ft | 315 kts | 296° |
| 2026-04-20 16:32 | 26.35911 | 51.45240 | 13127 ft | 314 kts | 297° |
| 2026-04-20 16:32 | 26.37000 | 51.43142 | 12578 ft | 311 kts | 293° |
| 2026-04-20 16:33 | 26.38068 | 51.41058 | 12187 ft | 307 kts | 299° |
| 2026-04-20 16:33 | 26.39200 | 51.39036 | 12051 ft | 310 kts | 298° |
| 2026-04-20 16:33 | 26.40363 | 51.37008 | 12012 ft | 309 kts | 300° |
| 2026-04-20 16:33 | 26.41514 | 51.35020 | 11941 ft | 300 kts | 298° |
| 2026-04-20 16:34 | 26.42588 | 51.33084 | 11831 ft | 288 kts | 299° |
| 2026-04-20 16:34 | 26.43625 | 51.31205 | 11512 ft | 283 kts | 299° |
| 2026-04-20 16:34 | 26.44638 | 51.29324 | 11066 ft | 281 kts | 289° |
| 2026-04-20 16:34 | 26.45447 | 51.27364 | 10657 ft | 276 kts | 285° |
| 2026-04-20 16:35 | 26.45673 | 51.25260 | 10170 ft | 275 kts | 262° |
| 2026-04-20 16:35 | 26.45031 | 51.23292 | 9764 ft | 276 kts | 237° |
| 2026-04-20 16:35 | 26.43847 | 51.21613 | 9328 ft | 276 kts | 233° |
| 2026-04-20 16:35 | 26.42636 | 51.19956 | 8902 ft | 275 kts | 233° |
| 2026-04-20 16:36 | 26.41434 | 51.18297 | 8447 ft | 274 kts | 233° |
| 2026-04-20 16:36 | 26.40241 | 51.16647 | 8049 ft | 273 kts | 233° |
| 2026-04-20 16:36 | 26.39046 | 51.14995 | 7634 ft | 272 kts | 233° |
| 2026-04-20 16:36 | 26.37840 | 51.13332 | 7234 ft | 271 kts | 233° |
| 2026-04-20 16:37 | 26.36655 | 51.11697 | 6829 ft | 271 kts | 233° |
| 2026-04-20 16:37 | 26.35476 | 51.10061 | 6454 ft | 270 kts | 233° |
| 2026-04-20 16:37 | 26.34320 | 51.08454 | 6048 ft | 269 kts | 227° |
| 2026-04-20 16:37 | 26.33061 | 51.06949 | 5718 ft | 261 kts | 224° |
| 2026-04-20 16:38 | 26.31914 | 51.05418 | 5593 ft | 249 kts | 233° |
| 2026-04-20 16:38 | 26.30846 | 51.03909 | 5265 ft | 247 kts | 233° |
| 2026-04-20 16:38 | 26.29791 | 51.02418 | 5072 ft | 244 kts | 231° |
| 2026-04-20 16:38 | 26.28718 | 51.00915 | 5009 ft | 249 kts | 231° |
| 2026-04-20 16:39 | 26.27647 | 50.99412 | 4912 ft | 246 kts | 231° |
| 2026-04-20 16:39 | 26.26596 | 50.97913 | 4629 ft | 246 kts | 233° |
| 2026-04-20 16:39 | 26.25474 | 50.96517 | 4372 ft | 238 kts | 220° |
| 2026-04-20 16:39 | 26.24324 | 50.95256 | 4198 ft | 225 kts | 226° |
| 2026-04-20 16:40 | 26.23338 | 50.93948 | 3990 ft | 221 kts | 232° |
| 2026-04-20 16:40 | 26.22328 | 50.92622 | 3567 ft | 227 kts | 228° |
| 2026-04-20 16:40 | 26.21369 | 50.91245 | 3449 ft | 228 kts | 233° |
| 2026-04-20 16:40 | 26.20418 | 50.89863 | 3329 ft | 219 kts | 233° |
| 2026-04-20 16:41 | 26.19494 | 50.88519 | 3036 ft | 220 kts | 233° |
| 2026-04-20 16:41 | 26.18582 | 50.87188 | 2927 ft | 211 kts | 233° |
| 2026-04-20 16:41 | 26.17710 | 50.85920 | 2844 ft | 201 kts | 233° |
| 2026-04-20 16:41 | 26.16876 | 50.84707 | 2660 ft | 196 kts | 235° |
| 2026-04-20 16:42 | 26.16398 | 50.83309 | 2373 ft | 195 kts | 270° |
| 2026-04-20 16:42 | 26.16665 | 50.81849 | 2190 ft | 191 kts | 292° |
| 2026-04-20 16:42 | 26.17275 | 50.80501 | 2170 ft | 196 kts | 300° |
| 2026-04-20 16:42 | 26.17987 | 50.79216 | 2173 ft | 195 kts | 302° |
| 2026-04-20 16:43 | 26.18690 | 50.77963 | 2161 ft | 184 kts | 298° |
| 2026-04-20 16:43 | 26.19345 | 50.76823 | 2208 ft | 165 kts | 296° |
| 2026-04-20 16:43 | 26.19959 | 50.75744 | 2192 ft | 169 kts | 301° |
| 2026-04-20 16:43 | 26.20561 | 50.74648 | 2110 ft | 166 kts | 299° |
| 2026-04-20 16:44 | 26.21209 | 50.73595 | 1892 ft | 163 kts | 300° |
| 2026-04-20 16:44 | 26.21810 | 50.72550 | 1691 ft | 155 kts | 301° |
| 2026-04-20 16:44 | 26.22369 | 50.71586 | 1485 ft | 141 kts | 302° |
| 2026-04-20 16:44 | 26.22869 | 50.70712 | 1312 ft | 128 kts | 302° |
| 2026-04-20 16:45 | 26.23191 | 50.70158 | 1207 ft | 130 kts | 302° |
| 2026-04-20 16:45 | 26.23675 | 50.69315 | 1029 ft | 128 kts | 302° |
| 2026-04-20 16:45 | 26.24155 | 50.68485 | 848 ft | 128 kts | 301° |
| 2026-04-20 16:45 | 26.24630 | 50.67647 | 699 ft | 127 kts | 300° |
| 2026-04-20 16:46 | 26.25101 | 50.66805 | 519 ft | 128 kts | 301° |
| 2026-04-20 16:46 | 26.25579 | 50.65969 | 307 ft | 126 kts | 299° |
| 2026-04-20 16:46 | 26.26066 | 50.65144 | 119 ft | 128 kts | 297° |
| 2026-04-20 16:46 | 26.26530 | 50.64322 | 22 ft | 119 kts | 300° |
| 2026-04-20 16:47 | 26.26910 | 50.63659 | 15 ft | 75 kts | 303° |
| 2026-04-20 16:47 | 26.27101 | 50.63325 | 14 ft | 42 kts | 304° |
| 2026-04-20 16:47 | 26.27194 | 50.63173 | 17 ft | 8 kts | 303° |
| 2026-04-20 16:47 | 26.27233 | 50.63076 | 15 ft | 18 kts | 287° |
| 2026-04-20 16:48 | 26.27256 | 50.62925 | 17 ft | 21 kts | 273° |
| 2026-04-20 16:48 | 26.27258 | 50.62812 | 18 ft | 0 kts | 271° |
| 2026-04-20 16:49 | 26.27259 | 50.62797 | 18 ft | 1 kts | 271° |
| 2026-04-20 16:49 | 26.27259 | 50.62789 | 18 ft | 3 kts | 271° |
| 2026-04-20 16:49 | 26.27260 | 50.62752 | 20 ft | 6 kts | 272° |
| 2026-04-20 16:50 | 26.27260 | 50.62745 | 19 ft | 0 kts | 273° |
| 2026-04-20 16:51 | 26.27260 | 50.62742 | 18 ft | 2 kts | 273° |
| 2026-04-20 16:51 | 26.27262 | 50.62702 | 17 ft | 8 kts | 272° |
| 2026-04-20 16:51 | 26.27239 | 50.62655 | 17 ft | 4 kts | 217° |
| 2026-04-20 16:51 | 26.27204 | 50.62633 | 18 ft | 8 kts | 194° |
| 2026-04-20 16:52 | 26.27163 | 50.62650 | 17 ft | 0 kts | 135° |
| 2026-04-20 16:52 | 26.27150 | 50.62670 | 17 ft | 0 kts | 124° |
| 2026-04-20 16:52 | 26.27141 | 50.62685 | 17 ft | 5 kts | 123° |
| 2026-04-20 16:53 | 26.27114 | 50.62733 | 17 ft | 9 kts | 122° |
| 2026-04-20 16:53 | 26.27088 | 50.62773 | 17 ft | 3 kts | 125° |
| 2026-04-20 16:53 | 26.27087 | 50.62773 | 17 ft | 0 kts | 122° |
| 2026-04-20 16:53 | 26.27087 | 50.62774 | 17 ft | 1 kts | 122° |
| 2026-04-20 16:54 | 26.27085 | 50.62777 | 17 ft | 0 kts | 122° |
| 2026-04-20 16:55 | 26.27076 | 50.62795 | 17 ft | 7 kts | 120° |
| 2026-04-20 16:55 | 26.27042 | 50.62860 | 17 ft | 10 kts | 120° |
| 2026-04-20 16:55 | 26.27027 | 50.62887 | 17 ft | 3 kts | 124° |
| 2026-04-20 16:56 | 26.26991 | 50.62903 | 17 ft | 8 kts | 184° |
| 2026-04-20 16:56 | 26.26939 | 50.62878 | 17 ft | 9 kts | 211° |
| 2026-04-20 16:56 | 26.26926 | 50.62870 | 17 ft | 0 kts | 211° |